Time;durP1;ratioP1;P1;durP2;ratioP2;P2;SDS_P1;SDS_P2;PMS_P1;PMS_P2;Temp;Humidity;BMP_temperature;BMP_pressure;BME280_temperature;BME280_humidity;BME280_pressure;Samples;Min_cycle;Max_cycle;Signal;HPM_P1;HPM_P2
2024/01/19 00:01:55;;;;;;;12.30;4.30;;;;;;;-3.98;100.00;98423.23;107163;1283;58826;-63
2024/01/19 00:04:43;;;;;;;14.20;4.70;;;;;;;-3.98;100.00;98427.91;107139;1286;72758;-63
2024/01/19 00:07:31;;;;;;;12.70;3.30;;;;;;;-3.98;100.00;98433.95;107359;1280;69015;-62
2024/01/19 00:10:21;;;;;;;13.30;4.70;;;;;;;-3.96;100.00;98434.21;107376;1282;72511;-61
2024/01/19 00:13:09;;;;;;;18.80;5.60;;;;;;;-3.96;100.00;98432.13;106384;1283;1002427;-63
2024/01/19 00:15:56;;;;;;;15.70;4.00;;;;;;;-3.98;100.00;98429.29;107195;1283;58922;-62
2024/01/19 00:18:44;;;;;;;16.80;4.50;;;;;;;-3.99;100.00;98431.75;107160;1283;72884;-62
2024/01/19 00:21:32;;;;;;;22.30;4.60;;;;;;;-3.97;100.00;98435.83;106927;1283;67676;-62
2024/01/19 00:24:20;;;;;;;14.30;4.00;;;;;;;-3.96;100.00;98440.61;106879;1283;72713;-63
2024/01/19 00:27:08;;;;;;;12.30;3.70;;;;;;;-3.95;100.00;98450.98;107019;1283;57381;-63
2024/01/19 00:29:55;;;;;;;11.40;4.00;;;;;;;-3.96;100.00;98446.70;106962;1283;60295;-63
2024/01/19 00:32:43;;;;;;;11.60;4.10;;;;;;;-3.97;100.00;98452.29;107011;1283;72811;-63
2024/01/19 00:35:31;;;;;;;12.90;3.90;;;;;;;-3.96;100.00;98457.79;106915;1284;67929;-63
2024/01/19 00:38:20;;;;;;;9.20;3.00;;;;;;;-3.94;100.00;98457.37;106799;1283;73660;-61
2024/01/19 00:41:08;;;;;;;9.20;3.10;;;;;;;-3.94;100.00;98470.00;106938;1283;57420;-62
2024/01/19 00:43:57;;;;;;;10.20;3.40;;;;;;;-3.95;100.00;98466.56;107011;1283;59980;-62
2024/01/19 00:46:45;;;;;;;13.40;4.00;;;;;;;-3.97;100.00;98472.39;106168;1283;1002958;-64
2024/01/19 00:49:32;;;;;;;9.70;3.70;;;;;;;-3.98;100.00;98478.17;106824;1283;66469;-63
2024/01/19 00:52:20;;;;;;;10.70;5.90;;;;;;;-3.99;100.00;98479.05;106450;1280;1003036;-62
2024/01/19 00:55:10;;;;;;;9.40;3.30;;;;;;;-3.98;100.00;98477.61;107145;1281;57346;-62
2024/01/19 00:57:58;;;;;;;13.30;3.80;;;;;;;-3.97;100.00;98489.36;107357;1281;61373;-63
2024/01/19 01:00:46;;;;;;;8.60;2.70;;;;;;;-3.98;100.00;98493.41;107346;1281;73279;-63
2024/01/19 01:03:36;;;;;;;6.90;2.40;;;;;;;-4.01;100.00;98492.48;107148;1281;68772;-62
2024/01/19 01:06:24;;;;;;;9.50;2.70;;;;;;;-4.02;100.00;98487.70;107041;1279;70602;-62
2024/01/19 01:09:12;;;;;;;12.30;3.80;;;;;;;-4.00;100.00;98497.80;106378;1283;1002111;-63
2024/01/19 01:11:59;;;;;;;9.70;2.90;;;;;;;-3.96;100.00;98499.36;107363;1280;58728;-63
2024/01/19 01:14:47;;;;;;;9.30;2.60;;;;;;;-3.94;100.00;98502.02;107295;1280;72712;-62
2024/01/19 01:17:36;;;;;;;11.20;3.40;;;;;;;-3.91;100.00;98499.87;107351;1280;66729;-62
2024/01/19 01:20:24;;;;;;;7.60;2.50;;;;;;;-3.90;100.00;98502.05;107303;1280;71155;-63
2024/01/19 01:23:12;;;;;;;12.80;2.90;;;;;;;-3.89;100.00;98506.69;107045;1280;58563;-64
2024/01/19 01:26:00;;;;;;;11.60;3.60;;;;;;;-3.84;100.00;98508.73;107293;1281;60110;-63
2024/01/19 01:28:48;;;;;;;10.80;3.40;;;;;;;-3.80;100.00;98509.10;107193;1280;71961;-63
2024/01/19 01:31:36;;;;;;;11.20;3.60;;;;;;;-3.78;100.00;98512.29;107149;1280;69071;-62
2024/01/19 01:34:24;;;;;;;9.50;3.10;;;;;;;-3.78;100.00;98520.05;107138;1281;71156;-64
2024/01/19 01:37:12;;;;;;;11.30;3.40;;;;;;;-3.75;100.00;98526.17;106459;1281;1002895;-62
2024/01/19 01:40:00;;;;;;;10.00;2.80;;;;;;;-3.69;100.00;98522.80;107381;1280;58716;-62
2024/01/19 01:42:48;;;;;;;9.70;2.70;;;;;;;-3.67;100.00;98523.77;107323;1280;73759;-63
2024/01/19 01:45:35;;;;;;;9.00;2.80;;;;;;;-3.66;100.00;98523.74;106415;1280;1002108;-63
2024/01/19 01:48:25;;;;;;;13.00;6.00;;;;;;;-3.66;100.00;98529.09;107363;1280;72568;-63
2024/01/19 01:51:14;;;;;;;9.90;3.00;;;;;;;-3.64;100.00;98527.44;107347;1280;57743;-63
2024/01/19 01:54:04;;;;;;;13.70;3.20;;;;;;;-3.59;100.00;98525.13;107182;1281;61607;-61
2024/01/19 01:56:53;;;;;;;11.50;2.70;;;;;;;-3.52;100.00;98525.00;107391;1280;71833;-63
2024/01/19 01:59:42;;;;;;;11.10;3.10;;;;;;;-3.49;100.00;98524.16;107142;1280;67279;-63
2024/01/19 02:02:30;;;;;;;10.50;2.90;;;;;;;-3.48;100.00;98523.98;107168;1280;71791;-62
2024/01/19 02:05:18;;;;;;;9.80;2.40;;;;;;;-3.47;100.00;98519.40;107360;1280;57405;-63
2024/01/19 02:08:06;;;;;;;12.90;2.90;;;;;;;-3.45;100.00;98516.89;107157;1280;60034;-62
2024/01/19 02:10:56;;;;;;;8.70;2.20;;;;;;;-3.45;100.00;98520.55;107388;1280;72876;-61
2024/01/19 02:13:44;;;;;;;13.90;3.00;;;;;;;-3.46;100.00;98520.22;107367;1280;66850;-63
2024/01/19 02:16:35;;;;;;;11.00;3.30;;;;;;;-3.47;100.00;98523.04;107141;1282;73758;-63
2024/01/19 02:19:23;;;;;;;8.90;2.60;;;;;;;-3.45;100.00;98531.11;107267;1281;57489;-62
2024/01/19 02:22:11;;;;;;;8.00;2.20;;;;;;;-3.45;100.00;98530.42;107376;1280;58777;-63
2024/01/19 02:24:58;;;;;;;8.10;2.40;;;;;;;-3.45;100.00;98529.55;107390;1280;72736;-62
2024/01/19 02:27:47;;;;;;;9.70;2.70;;;;;;;-3.46;100.00;98530.45;106648;1280;1002293;-62
2024/01/19 02:30:36;;;;;;;8.40;2.90;;;;;;;-3.47;100.00;98532.43;107392;1280;71150;-62
2024/01/19 02:33:24;;;;;;;12.20;2.50;;;;;;;-3.49;100.00;98526.43;107103;1281;58536;-64
2024/01/19 02:36:12;;;;;;;9.80;2.90;;;;;;;-3.42;100.00;98534.95;107359;1280;58818;-63
2024/01/19 02:38:59;;;;;;;6.80;2.10;;;;;;;-3.39;100.00;98537.98;106415;1280;1002393;-63
2024/01/19 02:41:47;;;;;;;8.10;2.20;;;;;;;-3.39;100.00;98541.25;107119;1280;67036;-64
2024/01/19 02:44:36;;;;;;;8.80;2.70;;;;;;;-3.37;100.00;98543.77;107062;1280;72755;-63
2024/01/19 02:47:23;;;;;;;8.00;2.20;;;;;;;-3.37;100.00;98540.32;107170;1279;58128;-62
2024/01/19 02:50:11;;;;;;;10.10;2.50;;;;;;;-3.36;100.00;98545.30;107156;1280;60416;-64
2024/01/19 02:53:00;;;;;;;10.20;2.70;;;;;;;-3.36;100.00;98546.17;106446;1280;1002661;-62
2024/01/19 02:55:48;;;;;;;11.00;2.30;;;;;;;-3.41;100.00;98533.73;107374;1279;69271;-63
2024/01/19 02:58:36;;;;;;;9.30;2.80;;;;;;;-3.39;100.00;98541.06;107381;1280;72644;-62
2024/01/19 03:01:23;;;;;;;9.80;2.80;;;;;;;-3.39;100.00;98541.41;107161;1279;58820;-64
2024/01/19 03:04:11;;;;;;;9.50;2.40;;;;;;;-3.38;100.00;98543.81;107357;1280;60345;-63
2024/01/19 03:06:59;;;;;;;7.90;2.40;;;;;;;-3.39;100.00;98553.74;107380;1280;71858;-63
2024/01/19 03:09:47;;;;;;;8.70;2.50;;;;;;;-3.41;100.00;98553.48;107383;1279;68612;-63
2024/01/19 03:12:35;;;;;;;10.60;2.60;;;;;;;-3.39;100.00;98556.70;107347;1279;73409;-63
2024/01/19 03:15:22;;;;;;;7.50;2.70;;;;;;;-3.40;100.00;98556.23;107369;1279;57582;-63
2024/01/19 03:18:10;;;;;;;13.00;2.90;;;;;;;-3.41;100.00;98557.31;107208;1279;58762;-62
2024/01/19 03:20:59;;;;;;;12.40;2.40;;;;;;;-3.43;100.00;98560.66;107356;1279;72857;-63
2024/01/19 03:23:47;;;;;;;8.10;2.40;;;;;;;-3.48;100.00;98552.22;106459;1279;1002597;-62
2024/01/19 03:26:34;;;;;;;7.90;2.60;;;;;;;-3.48;100.00;98558.12;107347;1280;72902;-62
2024/01/19 03:29:23;;;;;;;10.20;2.70;;;;;;;-3.48;100.00;98555.55;107160;1279;58821;-61
2024/01/19 03:32:11;;;;;;;9.40;2.50;;;;;;;-3.48;100.00;98552.59;106186;1280;1002581;-61
2024/01/19 03:34:59;;;;;;;12.90;2.70;;;;;;;-3.50;100.00;98551.63;107368;1279;73143;-62
2024/01/19 03:37:46;;;;;;;10.90;2.80;;;;;;;-3.53;100.00;98551.94;107183;1279;67781;-63
2024/01/19 03:40:34;;;;;;;6.90;2.10;;;;;;;-3.55;100.00;98548.89;107149;1279;72457;-65
2024/01/19 03:43:23;;;;;;;8.50;2.30;;;;;;;-3.57;100.00;98554.02;106319;1279;1002464;-66
2024/01/19 03:46:11;;;;;;;12.10;2.60;;;;;;;-3.60;100.00;98553.63;106641;1279;1002865;-63
2024/01/19 03:48:59;;;;;;;10.80;3.10;;;;;;;-3.63;100.00;98553.56;107175;1280;71850;-62
2024/01/19 03:52:05;;;;;;;11.80;2.70;;;;;;;-3.65;100.00;98558.67;107358;1279;69166;-63
2024/01/19 03:54:53;;;;;;;10.60;2.70;;;;;;;-3.65;100.00;98550.52;107159;1279;72694;-63
2024/01/19 03:57:40;;;;;;;9.80;2.90;;;;;;;-3.71;100.00;98547.51;107128;1279;57390;-62
2024/01/19 04:00:28;;;;;;;10.80;2.60;;;;;;;-3.69;100.00;98561.28;107392;1279;60476;-64
2024/01/19 04:03:18;;;;;;;12.00;2.50;;;;;;;-3.71;100.00;98568.82;107388;1279;73059;-62
2024/01/19 04:06:06;;;;;;;12.80;2.40;;;;;;;-3.72;100.00;98573.90;107185;1279;67718;-63
2024/01/19 04:08:54;;;;;;;9.60;2.80;;;;;;;-3.76;100.00;98568.55;107124;1279;71189;-64
2024/01/19 04:11:43;;;;;;;9.00;1.90;;;;;;;-3.74;100.00;98580.43;107327;1279;57525;-65
2024/01/19 04:14:31;;;;;;;12.50;3.00;;;;;;;-3.78;100.00;98578.83;107330;1279;57954;-62
2024/01/19 04:17:19;;;;;;;10.00;2.50;;;;;;;-3.78;100.00;98580.23;106601;1279;1002299;-63
2024/01/19 04:20:07;;;;;;;9.90;2.40;;;;;;;-3.79;100.00;98577.67;107354;1279;67951;-63
2024/01/19 04:22:56;;;;;;;11.70;3.60;;;;;;;-3.79;100.00;98575.23;107348;1279;72696;-62
2024/01/19 04:25:43;;;;;;;9.00;2.40;;;;;;;-3.79;100.00;98577.67;107323;1279;59663;-62
2024/01/19 04:28:31;;;;;;;7.30;2.10;;;;;;;-3.78;100.00;98576.95;107223;1279;60085;-62
2024/01/19 04:31:19;;;;;;;8.50;2.40;;;;;;;-3.79;100.00;98577.16;107189;1280;74294;-64
2024/01/19 04:34:10;;;;;;;8.10;2.30;;;;;;;-3.80;100.00;98574.95;107367;1279;66844;-63
2024/01/19 04:36:59;;;;;;;9.90;2.70;;;;;;;-3.81;100.00;98576.90;107350;1279;72490;-64
2024/01/19 04:39:46;;;;;;;7.80;2.20;;;;;;;-3.81;100.00;98579.99;106525;1280;1002786;-63
2024/01/19 04:42:35;;;;;;;7.20;2.10;;;;;;;-3.80;100.00;98581.01;107400;1279;60106;-64
2024/01/19 04:45:23;;;;;;;9.70;2.50;;;;;;;-3.81;100.00;98581.73;106519;1279;1002552;-63
2024/01/19 04:48:11;;;;;;;10.50;2.60;;;;;;;-3.81;100.00;98577.23;106399;1281;1002434;-63
2024/01/19 04:50:59;;;;;;;11.30;2.90;;;;;;;-3.79;100.00;98578.55;107262;1279;71253;-64
2024/01/19 04:53:47;;;;;;;8.10;2.60;;;;;;;-3.79;100.00;98577.30;106585;1279;1002722;-64
2024/01/19 04:56:35;;;;;;;13.60;3.00;;;;;;;-3.78;100.00;98583.85;107342;1279;59978;-63
2024/01/19 04:59:23;;;;;;;7.80;2.30;;;;;;;-3.76;100.00;98587.95;107351;1279;72935;-63
2024/01/19 05:02:11;;;;;;;9.10;2.90;;;;;;;-3.75;100.00;98590.52;107380;1280;67779;-63
2024/01/19 05:05:01;;;;;;;10.60;2.20;;;;;;;-3.77;100.00;98591.44;107363;1280;73390;-63
2024/01/19 05:07:49;;;;;;;11.30;2.30;;;;;;;-3.78;100.00;98592.69;107379;1279;57606;-63
2024/01/19 05:10:37;;;;;;;8.60;2.80;;;;;;;-3.80;100.00;98600.58;107362;1279;60412;-64
2024/01/19 05:13:25;;;;;;;9.10;2.30;;;;;;;-3.81;100.00;98599.95;107378;1279;72708;-62
2024/01/19 05:16:13;;;;;;;7.60;2.30;;;;;;;-3.84;100.00;98594.69;106640;1280;1002092;-62
2024/01/19 05:19:01;;;;;;;11.20;3.10;;;;;;;-3.87;100.00;98591.89;106615;1279;1002660;-62
2024/01/19 05:21:49;;;;;;;8.20;2.60;;;;;;;-3.90;100.00;98591.34;107326;1279;59553;-63
2024/01/19 05:24:41;;;;;;;9.40;2.20;;;;;;;-3.93;100.00;98591.60;107376;1280;58273;-62
2024/01/19 05:27:28;;;;;;;7.30;2.20;;;;;;;-3.95;100.00;98591.67;107362;1280;72882;-63
2024/01/19 05:30:17;;;;;;;7.30;2.30;;;;;;;-3.98;100.00;98589.20;107020;1280;68010;-65
2024/01/19 05:33:05;;;;;;;12.50;3.00;;;;;;;-4.01;100.00;98587.79;106028;1279;1002552;-63
2024/01/19 05:35:53;;;;;;;11.00;2.70;;;;;;;-4.06;100.00;98588.67;107348;1279;58928;-64
2024/01/19 05:38:40;;;;;;;12.10;2.90;;;;;;;-4.09;100.00;98584.32;107301;1279;60394;-63
2024/01/19 05:41:29;;;;;;;9.40;2.70;;;;;;;-4.12;100.00;98584.09;107357;1279;72749;-66
2024/01/19 05:44:17;;;;;;;9.50;3.10;;;;;;;-4.17;100.00;98578.56;107303;1279;67691;-64
2024/01/19 05:47:05;;;;;;;9.30;2.90;;;;;;;-4.21;100.00;98582.20;107479;1279;72710;-63
2024/01/19 05:49:53;;;;;;;9.20;2.90;;;;;;;-4.25;100.00;98588.61;107366;1280;57326;-65
2024/01/19 05:52:41;;;;;;;9.30;2.60;;;;;;;-4.30;100.00;98594.32;107340;1279;60175;-65
2024/01/19 05:55:28;;;;;;;11.70;2.90;;;;;;;-4.33;100.00;98596.87;107151;1279;72943;-65
2024/01/19 05:58:16;;;;;;;7.60;2.70;;;;;;;-4.35;100.00;98598.36;107329;1279;67708;-64
2024/01/19 06:01:05;;;;;;;10.00;2.90;;;;;;;-4.36;100.00;98598.75;107198;1281;73735;-65
2024/01/19 06:03:52;;;;;;;9.90;2.70;;;;;;;-4.41;100.00;98611.42;107281;1280;57366;-63
2024/01/19 06:06:40;;;;;;;9.40;2.80;;;;;;;-4.42;100.00;98611.10;106963;1279;58804;-65
2024/01/19 06:09:29;;;;;;;12.90;3.70;;;;;;;-4.43;100.00;98616.70;107321;1279;71885;-62
2024/01/19 06:12:17;;;;;;;9.10;2.80;;;;;;;-4.46;100.00;98616.42;106437;1279;1003118;-66
2024/01/19 06:15:05;;;;;;;8.10;2.30;;;;;;;-4.49;100.00;98614.31;106372;1281;1002704;-63
2024/01/19 06:17:55;;;;;;;13.70;3.20;;;;;;;-4.53;100.00;98608.95;107102;1279;57650;-65
2024/01/19 06:20:43;;;;;;;10.30;3.70;;;;;;;-4.56;100.00;98611.83;106313;1280;1002422;-62
2024/01/19 06:23:32;;;;;;;8.90;3.00;;;;;;;-4.59;100.00;98604.83;107038;1279;73848;-64
2024/01/19 06:26:19;;;;;;;11.70;3.70;;;;;;;-4.66;100.00;98606.66;107126;1279;67617;-64
2024/01/19 06:29:08;;;;;;;15.70;4.50;;;;;;;-4.76;100.00;98604.97;107311;1280;72563;-64
2024/01/19 06:31:56;;;;;;;11.80;3.10;;;;;;;-4.82;100.00;98612.45;107073;1281;57430;-63
2024/01/19 06:34:44;;;;;;;11.10;4.00;;;;;;;-4.90;100.00;98607.41;107208;1281;60103;-63
2024/01/19 06:37:33;;;;;;;10.70;5.60;;;;;;;-5.00;100.00;98612.45;107157;1281;72809;-63
2024/01/19 06:40:23;;;;;;;14.20;4.20;;;;;;;-5.08;100.00;98614.64;107083;1281;66559;-63
2024/01/19 06:43:12;;;;;;;15.90;3.90;;;;;;;-5.12;100.00;98626.20;107094;1281;73288;-62
2024/01/19 06:46:00;;;;;;;10.60;3.30;;;;;;;-5.15;100.00;98631.66;106260;1281;1002331;-63
2024/01/19 06:48:48;;;;;;;10.20;3.50;;;;;;;-5.14;100.00;98642.52;106234;1281;1002944;-63
2024/01/19 06:51:36;;;;;;;13.70;3.80;;;;;;;-5.11;100.00;98646.07;107147;1281;74005;-63
2024/01/19 06:54:24;;;;;;;15.60;4.70;;;;;;;-5.09;100.00;98648.78;107233;1281;66819;-62
2024/01/19 06:57:12;;;;;;;13.50;4.00;;;;;;;-5.06;100.00;98644.50;107031;1281;72546;-62
2024/01/19 07:00:00;;;;;;;11.60;3.60;;;;;;;-5.02;100.00;98637.77;106383;1281;1002265;-66
2024/01/19 07:02:48;;;;;;;14.10;4.10;;;;;;;-4.99;100.00;98634.20;107058;1280;60679;-64
2024/01/19 07:05:36;;;;;;;10.70;3.50;;;;;;;-4.98;100.00;98637.29;107274;1280;73079;-64
2024/01/19 07:08:24;;;;;;;7.60;3.00;;;;;;;-4.99;100.00;98632.47;107281;1279;68631;-62
2024/01/19 07:11:13;;;;;;;13.80;4.30;;;;;;;-4.99;100.00;98639.58;107027;1280;72395;-64
2024/01/19 07:14:01;;;;;;;11.50;3.80;;;;;;;-4.96;100.00;98633.05;107237;1279;58050;-65
2024/01/19 07:16:48;;;;;;;13.60;3.90;;;;;;;-4.89;100.00;98632.79;107112;1279;60495;-64
2024/01/19 07:19:38;;;;;;;12.10;3.50;;;;;;;-4.80;100.00;98634.38;107144;1280;71631;-64
2024/01/19 07:22:27;;;;;;;12.40;3.60;;;;;;;-4.73;100.00;98635.50;107062;1280;68253;-63
2024/01/19 07:25:15;;;;;;;10.10;3.40;;;;;;;-4.67;100.00;98628.52;107056;1279;72902;-64
2024/01/19 07:28:03;;;;;;;11.70;3.50;;;;;;;-4.59;100.00;98623.89;106294;1280;1002301;-63
2024/01/19 07:30:50;;;;;;;10.20;3.60;;;;;;;-4.50;100.00;98623.00;107290;1280;59986;-64
2024/01/19 07:33:39;;;;;;;10.70;3.40;;;;;;;-4.42;100.00;98630.81;107100;1279;73088;-63
2024/01/19 07:36:27;;;;;;;10.10;3.50;;;;;;;-4.32;100.00;98629.21;107284;1279;67653;-64
2024/01/19 07:39:15;;;;;;;12.90;3.50;;;;;;;-4.19;100.00;98627.85;107090;1280;71518;-65
2024/01/19 07:42:03;;;;;;;13.50;3.60;;;;;;;-4.18;100.00;98618.80;107196;1280;57639;-65
2024/01/19 07:44:52;;;;;;;10.60;3.40;;;;;;;-4.09;100.00;98626.06;107281;1280;60280;-65
2024/01/19 07:47:40;;;;;;;10.60;3.50;;;;;;;-4.05;100.00;98623.31;107321;1279;73140;-65
2024/01/19 07:50:28;;;;;;;10.10;3.60;;;;;;;-4.01;100.00;98623.15;107232;1280;67903;-69
2024/01/19 07:53:16;;;;;;;9.40;3.80;;;;;;;-3.98;100.00;98622.33;107265;1279;73459;-62
2024/01/19 07:56:05;;;;;;;11.20;3.30;;;;;;;-3.97;100.00;98619.17;107108;1280;58572;-66
2024/01/19 07:58:52;;;;;;;12.30;3.30;;;;;;;-3.85;100.00;98635.48;107313;1280;61169;-66
2024/01/19 08:01:41;;;;;;;9.50;3.10;;;;;;;-3.79;100.00;98639.05;107089;1280;73438;-64
2024/01/19 08:04:29;;;;;;;9.30;3.20;;;;;;;-3.70;100.00;98658.27;107321;1280;67646;-66
2024/01/19 08:07:17;;;;;;;10.60;3.60;;;;;;;-3.62;100.00;98662.95;106355;1280;1015073;-67
2024/01/19 08:10:05;;;;;;;13.40;3.30;;;;;;;-3.48;100.00;98658.89;107070;1280;58548;-66
2024/01/19 08:12:52;;;;;;;11.70;3.40;;;;;;;-3.26;100.00;98664.86;107303;1280;60402;-65
2024/01/19 08:15:41;;;;;;;12.20;5.00;;;;;;;-3.15;100.00;98660.41;107085;1279;74075;-69
2024/01/19 08:18:33;;;;;;;9.80;3.70;;;;;;;-3.09;100.00;98667.45;107287;1279;68900;-66
2024/01/19 08:21:25;;;;;;;10.90;4.20;;;;;;;-3.01;100.00;98663.25;107375;1280;71139;-64
2024/01/19 08:24:14;;;;;;;10.40;3.30;;;;;;;-2.89;100.00;98664.80;107437;1279;57688;-65
2024/01/19 08:27:03;;;;;;;11.10;3.50;;;;;;;-2.62;100.00;98671.42;107088;1280;59082;-66
2024/01/19 08:29:52;;;;;;;11.00;4.00;;;;;;;-2.32;100.00;98683.04;107519;1279;71839;-67
2024/01/19 08:32:39;;;;;;;12.40;3.80;;;;;;;-2.09;100.00;98689.96;107340;1282;66906;-69
2024/01/19 08:35:27;;;;;;;12.60;4.70;;;;;;;-0.76;99.97;98701.38;107422;1279;72347;-68
2024/01/19 08:38:18;;;;;;;9.60;3.60;;;;;;;0.38;93.62;98698.49;107342;1280;59944;-64
2024/01/19 08:41:06;;;;;;;9.50;3.30;;;;;;;-0.11;91.49;98700.34;107208;1280;60947;-64
2024/01/19 08:43:54;;;;;;;8.60;3.10;;;;;;;-0.16;92.60;98703.91;107432;1280;72988;-64
2024/01/19 08:46:45;;;;;;;8.00;3.00;;;;;;;-0.07;91.36;98706.39;107449;1279;66639;-64
2024/01/19 08:49:33;;;;;;;10.80;2.60;;;;;;;-0.34;92.59;98712.23;107416;1280;72689;-68
2024/01/19 08:52:21;;;;;;;8.70;2.60;;;;;;;-0.62;93.89;98714.42;107372;1279;57441;-62
2024/01/19 08:55:09;;;;;;;8.00;2.70;;;;;;;-0.82;95.53;98719.67;107401;1280;58942;-66
2024/01/19 08:57:57;;;;;;;11.40;2.90;;;;;;;-0.96;96.97;98727.86;107100;1279;71964;-63
2024/01/19 09:00:46;;;;;;;8.40;2.90;;;;;;;-1.05;97.60;98728.50;106678;1279;1002872;-63
2024/01/19 09:03:34;;;;;;;8.70;3.20;;;;;;;-0.78;97.92;98724.55;107340;1280;72631;-63
2024/01/19 09:06:24;;;;;;;12.50;4.20;;;;;;;-0.50;96.96;98731.23;106520;1281;1002821;-65
2024/01/19 09:09:12;;;;;;;13.00;3.30;;;;;;;-0.47;97.37;98734.04;107345;1279;60501;-64
2024/01/19 09:12:00;;;;;;;8.70;3.00;;;;;;;-0.49;97.20;98733.64;107234;1280;71804;-63
2024/01/19 09:14:48;;;;;;;10.00;2.80;;;;;;;-0.50;96.63;98735.77;107414;1280;66344;-64
2024/01/19 09:17:35;;;;;;;6.80;2.30;;;;;;;-0.55;95.97;98735.17;107225;1280;70202;-63
2024/01/19 09:20:24;;;;;;;9.40;2.80;;;;;;;-0.71;96.81;98738.08;107238;1279;58564;-64
2024/01/19 09:23:12;;;;;;;9.80;2.60;;;;;;;-0.83;97.36;98745.00;107406;1279;59135;-67
2024/01/19 09:25:59;;;;;;;7.20;2.70;;;;;;;-0.90;97.56;98754.58;107412;1279;72700;-63
2024/01/19 09:28:48;;;;;;;7.80;3.10;;;;;;;-0.96;97.76;98761.16;107300;1280;68700;-63
2024/01/19 09:31:47;;;;;;;9.40;3.10;;;;;;;-0.96;97.79;98765.87;107208;1279;204435;-63
2024/01/19 09:34:35;;;;;;;10.50;2.70;;;;;;;-0.94;97.59;98774.27;107210;1279;57679;-63
2024/01/19 09:37:23;;;;;;;10.10;3.60;;;;;;;-0.85;97.62;98780.24;107402;1279;61116;-64
2024/01/19 09:40:12;;;;;;;7.60;3.10;;;;;;;-0.85;98.25;98784.42;106558;1279;1002167;-64
2024/01/19 09:43:01;;;;;;;8.40;3.00;;;;;;;-0.88;98.69;98788.60;107359;1279;66328;-64
2024/01/19 09:45:53;;;;;;;11.40;3.40;;;;;;;-0.98;99.76;98791.89;107234;1280;72854;-67
2024/01/19 09:48:59;;;;;;;11.00;2.80;;;;;;;-0.95;99.99;98795.05;106462;1280;1002337;-64
2024/01/19 09:52:19;;;;;;;9.30;3.00;;;;;;;-1.01;99.67;98793.61;107139;1280;59813;-65
2024/01/19 09:55:13;;;;;;;10.50;3.90;;;;;;;-0.89;100.00;98798.04;106490;1279;1002263;-64
2024/01/19 09:58:01;;;;;;;11.10;3.50;;;;;;;-0.66;99.99;98800.39;107390;1280;68752;-63
2024/01/19 10:00:51;;;;;;;9.70;3.30;;;;;;;-0.59;100.00;98808.38;107217;1280;73519;-64
2024/01/19 10:03:39;;;;;;;8.80;3.00;;;;;;;-0.25;99.72;98809.56;107364;1279;59057;-65
2024/01/19 10:06:27;;;;;;;9.90;3.10;;;;;;;-0.06;98.83;98815.19;107349;1279;58977;-64
2024/01/19 10:09:18;;;;;;;8.20;2.90;;;;;;;-0.02;98.41;98812.48;107217;1279;74075;-64
2024/01/19 10:12:09;;;;;;;10.90;3.40;;;;;;;0.02;98.75;98813.17;107277;1280;68667;-64
2024/01/19 10:14:57;;;;;;;11.10;3.50;;;;;;;0.25;98.80;98822.89;107373;1281;70468;-63
2024/01/19 10:17:45;;;;;;;8.40;3.10;;;;;;;0.59;96.90;98815.61;107018;1280;58523;-65
2024/01/19 10:20:38;;;;;;;6.90;2.80;;;;;;;0.74;96.55;98822.62;107197;1280;61129;-62
2024/01/19 10:23:26;;;;;;;8.20;2.90;;;;;;;0.66;95.68;98822.40;107295;1279;73217;-66
2024/01/19 10:26:14;;;;;;;10.90;3.40;;;;;;;0.68;96.35;98831.33;107389;1280;67926;-64
2024/01/19 10:29:16;;;;;;;9.70;3.20;;;;;;;0.65;96.84;98831.50;107266;1280;71615;-64
2024/01/19 10:32:05;;;;;;;8.70;3.30;;;;;;;0.84;97.26;98833.95;107243;1280;57590;-64
2024/01/19 10:35:05;;;;;;;12.80;4.40;;;;;;;1.46;95.34;98835.07;107293;1280;61231;-63
2024/01/19 10:38:05;;;;;;;9.20;3.50;;;;;;;2.01;92.57;98836.09;107320;1280;74007;-67
2024/01/19 10:40:53;;;;;;;11.40;4.90;;;;;;;1.75;89.62;98838.20;107235;1279;69091;-65
2024/01/19 10:43:41;;;;;;;9.70;4.00;;;;;;;1.73;90.26;98840.45;107352;1279;73745;-65
2024/01/19 10:46:29;;;;;;;9.10;2.80;;;;;;;1.48;88.29;98840.35;107344;1280;57245;-64
2024/01/19 10:49:16;;;;;;;9.90;2.60;;;;;;;1.13;89.67;98854.31;107283;1280;61516;-64
2024/01/19 10:52:05;;;;;;;10.10;3.20;;;;;;;0.79;91.15;98859.36;107393;1279;72645;-65
2024/01/19 10:54:53;;;;;;;10.80;3.40;;;;;;;0.53;93.52;98861.52;106459;1280;1002181;-63
2024/01/19 10:57:41;;;;;;;9.00;3.40;;;;;;;0.28;95.69;98870.35;107020;1279;72444;-63
2024/01/19 11:00:29;;;;;;;10.10;3.30;;;;;;;0.10;97.27;98876.08;107330;1280;57236;-63
2024/01/19 11:03:19;;;;;;;11.10;3.90;;;;;;;-0.08;98.70;98883.63;107304;1280;61111;-64
2024/01/19 11:06:07;;;;;;;13.30;4.00;;;;;;;-0.31;99.65;98890.05;107499;1279;72985;-64
2024/01/19 11:08:55;;;;;;;10.30;3.80;;;;;;;-0.51;100.00;98888.47;107703;1280;66324;-64
2024/01/19 11:12:00;;;;;;;10.60;3.60;;;;;;;-0.65;100.00;98895.07;106653;1284;1002524;-63
2024/01/19 11:14:51;;;;;;;8.80;3.20;;;;;;;-0.79;100.00;98900.66;107292;1280;57382;-63
2024/01/19 11:17:38;;;;;;;10.90;4.00;;;;;;;-0.91;100.00;98903.49;107434;1279;59277;-64
2024/01/19 11:20:29;;;;;;;10.60;3.10;;;;;;;-0.95;100.00;98904.39;107128;1280;71517;-65
2024/01/19 11:23:17;;;;;;;9.80;4.90;;;;;;;-1.05;100.00;98914.46;107028;1281;68676;-64
2024/01/19 11:26:20;;;;;;;11.40;4.30;;;;;;;-1.10;100.00;98908.74;107038;1280;71733;-65
2024/01/19 11:29:30;;;;;;;10.70;3.80;;;;;;;-1.09;100.00;98922.34;107101;1280;59646;-64
2024/01/19 11:32:19;;;;;;;11.30;3.50;;;;;;;-1.12;100.00;98918.98;107227;1281;59042;-64
2024/01/19 11:35:07;;;;;;;10.10;3.40;;;;;;;-1.11;100.00;98914.95;107287;1280;73183;-64
2024/01/19 11:37:55;;;;;;;10.30;3.70;;;;;;;-1.10;100.00;98916.43;106880;1284;68138;-63
2024/01/19 11:40:48;;;;;;;12.30;3.80;;;;;;;-1.05;100.00;98916.90;106839;1284;72984;-64
2024/01/19 11:43:39;;;;;;;9.20;3.50;;;;;;;-0.94;100.00;98915.52;106108;1284;1002441;-67
2024/01/19 11:46:44;;;;;;;9.30;3.10;;;;;;;-0.90;100.00;98913.38;106866;1284;60228;-63
2024/01/19 11:49:37;;;;;;;9.80;3.10;;;;;;;-0.81;100.00;98922.02;106890;1284;71595;-63
2024/01/19 11:52:25;;;;;;;8.30;2.70;;;;;;;-0.58;100.00;98923.52;106834;1284;68674;-63
2024/01/19 11:55:25;;;;;;;10.30;3.70;;;;;;;-0.69;100.00;98923.66;106845;1284;72815;-67
2024/01/19 11:58:40;;;;;;;6.90;2.60;;;;;;;-0.78;100.00;98920.63;106146;1284;1002401;-65
2024/01/19 12:01:28;;;;;;;10.10;2.80;;;;;;;-0.84;100.00;98921.81;106638;1284;60101;-64
2024/01/19 12:04:17;;;;;;;8.50;2.50;;;;;;;-0.79;100.00;98927.65;106669;1284;73012;-64
2024/01/19 12:07:06;;;;;;;8.50;3.10;;;;;;;-0.66;100.00;98931.20;106812;1284;68141;-63
2024/01/19 12:10:15;;;;;;;8.30;2.80;;;;;;;-0.53;100.00;98933.33;107179;1281;73627;-64
2024/01/19 12:13:04;;;;;;;8.60;2.70;;;;;;;-0.54;100.00;98936.51;107214;1279;59508;-64
2024/01/19 12:15:51;;;;;;;10.20;2.80;;;;;;;-0.52;100.00;98937.14;107210;1280;58740;-61
2024/01/19 12:18:41;;;;;;;12.20;3.20;;;;;;;-0.41;100.00;98935.52;107196;1281;73754;-64
2024/01/19 12:21:30;;;;;;;6.10;2.20;;;;;;;0.27;100.00;98932.91;107129;1280;68970;-63
2024/01/19 12:24:20;;;;;;;8.60;3.60;;;;;;;0.41;98.24;98934.96;107273;1279;71127;-64
2024/01/19 12:27:08;;;;;;;8.00;2.60;;;;;;;0.29;98.31;98939.96;107075;1281;58180;-63
2024/01/19 12:29:56;;;;;;;7.20;2.40;;;;;;;0.32;97.60;98943.42;107277;1279;60309;-65
2024/01/19 12:32:47;;;;;;;9.00;2.80;;;;;;;0.72;95.76;98939.75;107274;1280;71297;-65
2024/01/19 12:35:34;;;;;;;7.90;2.80;;;;;;;0.53;95.21;98939.70;107172;1280;67393;-64
2024/01/19 12:38:22;;;;;;;8.60;2.70;;;;;;;0.41;95.42;98939.49;107246;1279;72801;-63
2024/01/19 12:41:18;;;;;;;10.10;2.70;;;;;;;0.22;95.64;98940.70;107064;1280;57461;-65
2024/01/19 12:44:08;;;;;;;8.10;2.70;;;;;;;-0.05;97.71;98946.95;107163;1280;60155;-64
2024/01/19 12:46:59;;;;;;;8.90;2.90;;;;;;;-0.14;99.62;98948.79;107303;1280;72885;-64
2024/01/19 12:49:50;;;;;;;8.00;3.00;;;;;;;-0.16;99.56;98957.45;107089;1279;68800;-65
2024/01/19 12:52:50;;;;;;;8.60;3.10;;;;;;;-0.15;100.00;98964.21;107039;1280;72829;-63
2024/01/19 12:55:39;;;;;;;10.00;2.90;;;;;;;-0.19;100.00;98969.83;107078;1280;59969;-64